Time;durP1;ratioP1;P1;durP2;ratioP2;P2;SDS_P1;SDS_P2;PMS_P1;PMS_P2;Temp;Humidity;BMP_temperature;BMP_pressure;BME280_temperature;BME280_humidity;BME280_pressure;Samples;Min_cycle;Max_cycle;Signal;HPM_P1;HPM_P2
2022/04/13 00:01:07;;;;;;;10.20;6.25;;;12.70;99.90;;;;;;4999101;28;20033;-81
2022/04/13 00:03:33;;;;;;;9.82;7.20;;;12.60;99.90;;;;;;5016248;28;20055;-82
2022/04/13 00:05:58;;;;;;;12.40;6.70;;;12.50;99.90;;;;;;5003676;28;20033;-82
2022/04/13 00:08:24;;;;;;;11.35;6.93;;;12.50;99.90;;;;;;5013014;28;20433;-83
2022/04/13 00:10:50;;;;;;;8.23;6.55;;;12.40;99.90;;;;;;4998285;28;20119;-81
2022/04/13 00:13:15;;;;;;;8.63;6.70;;;12.40;99.90;;;;;;5032296;28;20469;-81
2022/04/13 00:15:41;;;;;;;9.35;6.78;;;12.30;99.90;;;;;;5031724;28;20032;-83
2022/04/13 00:18:08;;;;;;;10.48;6.80;;;12.30;99.90;;;;;;5013194;28;20377;-81
2022/04/13 00:20:37;;;;;;;10.27;6.25;;;12.20;99.90;;;;;;5033063;28;20103;-82
2022/04/13 00:23:03;;;;;;;10.82;6.68;;;12.20;99.90;;;;;;5015261;28;20120;-83
2022/04/13 00:25:29;;;;;;;8.98;6.70;;;12.20;99.90;;;;;;5001731;28;20131;-81
2022/04/13 00:27:55;;;;;;;11.63;7.07;;;12.10;99.90;;;;;;5012305;28;20036;-81
2022/04/13 00:30:22;;;;;;;8.88;6.25;;;12.10;99.90;;;;;;5008751;28;20049;-82
2022/04/13 00:32:48;;;;;;;9.50;6.90;;;12.10;99.90;;;;;;4998397;28;20051;-81
2022/04/13 00:35:13;;;;;;;8.68;6.65;;;12.00;99.90;;;;;;5014769;28;20124;-81
2022/04/13 00:37:39;;;;;;;9.40;6.78;;;12.00;99.90;;;;;;5032065;28;20466;-82
2022/04/13 00:40:07;;;;;;;10.82;7.03;;;12.00;99.90;;;;;;5021160;28;20041;-84
2022/04/13 00:42:33;;;;;;;10.45;7.57;;;11.90;99.90;;;;;;5015437;28;20514;-81
2022/04/13 00:44:59;;;;;;;10.88;7.07;;;11.90;99.90;;;;;;5015330;28;20051;-81
2022/04/13 00:47:24;;;;;;;10.48;7.15;;;11.80;99.90;;;;;;5015362;28;20528;-81
2022/04/13 00:49:50;;;;;;;12.35;7.40;;;11.80;99.90;;;;;;5009334;28;20124;-80
2022/04/13 00:52:19;;;;;;;9.15;6.90;;;11.80;99.90;;;;;;5028684;28;20135;-81
2022/04/13 00:54:47;;;;;;;10.27;7.13;;;11.70;99.90;;;;;;5011811;28;20079;-87
2022/04/13 00:57:15;;;;;;;12.23;7.03;;;11.80;99.90;;;;;;5031664;28;20080;-82
2022/04/13 00:59:44;;;;;;;10.55;7.18;;;11.70;99.90;;;;;;5006475;28;20041;-82
2022/04/13 01:02:12;;;;;;;12.27;7.47;;;11.70;99.90;;;;;;4995233;28;20047;-81
2022/04/13 01:04:38;;;;;;;8.55;7.07;;;11.70;99.90;;;;;;5027412;28;20037;-81
2022/04/13 01:07:09;;;;;;;10.48;7.35;;;11.70;99.90;;;;;;4998284;28;20681;-82
2022/04/13 01:09:36;;;;;;;9.75;7.75;;;11.70;99.90;;;;;;5006321;28;20045;-81
2022/04/13 01:12:02;;;;;;;11.68;7.90;;;11.80;99.90;;;;;;5031308;28;20128;-80
2022/04/13 01:14:29;;;;;;;12.07;7.55;;;11.80;99.90;;;;;;5015757;28;20045;-82
2022/04/13 01:16:55;;;;;;;14.38;8.73;;;11.90;99.90;;;;;;5010597;28;20206;-81
2022/04/13 01:19:21;;;;;;;14.30;8.73;;;12.00;99.90;;;;;;4996668;28;20036;-80
2022/04/13 01:21:52;;;;;;;11.18;8.25;;;12.00;99.90;;;;;;4998646;28;20060;-86
2022/04/13 01:24:20;;;;;;;10.20;8.55;;;12.10;99.90;;;;;;5031332;28;20063;-82
2022/04/13 01:26:45;;;;;;;14.30;8.95;;;12.10;99.90;;;;;;4995172;28;20151;-86
2022/04/13 01:29:12;;;;;;;12.23;8.88;;;12.10;99.90;;;;;;5014084;28;20532;-82
2022/04/13 01:31:39;;;;;;;12.85;8.82;;;12.10;99.90;;;;;;5030797;28;20087;-82
2022/04/13 01:34:06;;;;;;;11.38;8.65;;;12.20;99.90;;;;;;5031185;28;20165;-81
2022/04/13 01:36:36;;;;;;;12.95;8.80;;;12.20;99.90;;;;;;5031394;28;20040;-81
2022/04/13 01:39:04;;;;;;;13.40;8.90;;;12.20;99.90;;;;;;5017017;28;20445;-82
2022/04/13 01:41:29;;;;;;;15.63;9.05;;;12.20;99.90;;;;;;5017951;28;20084;-82
2022/04/13 01:43:56;;;;;;;12.75;8.60;;;12.20;99.90;;;;;;5018240;28;20041;-81
2022/04/13 01:46:22;;;;;;;14.05;8.82;;;12.20;99.90;;;;;;5018759;28;20124;-81
2022/04/13 01:48:48;;;;;;;12.60;9.40;;;12.20;99.90;;;;;;5018655;28;20132;-86
2022/04/13 01:51:14;;;;;;;13.05;8.98;;;12.20;99.90;;;;;;5001923;28;20128;-81
2022/04/13 01:53:40;;;;;;;13.13;9.65;;;12.20;99.90;;;;;;4982463;28;20077;-80
2022/04/13 01:56:06;;;;;;;14.30;9.68;;;12.20;99.90;;;;;;5011406;28;20037;-84
2022/04/13 01:58:32;;;;;;;13.90;9.93;;;12.20;99.90;;;;;;5018527;28;20033;-81
2022/04/13 02:00:58;;;;;;;12.88;8.90;;;12.20;99.90;;;;;;5001261;28;20048;-80
2022/04/13 02:03:25;;;;;;;12.90;9.10;;;12.20;99.90;;;;;;5034097;28;20045;-83
2022/04/13 02:05:52;;;;;;;13.43;9.52;;;12.20;99.90;;;;;;5033953;28;20036;-80
2022/04/13 02:08:22;;;;;;;15.15;9.30;;;12.20;99.90;;;;;;5018414;28;20047;-81
2022/04/13 02:10:49;;;;;;;13.00;9.40;;;12.10;99.90;;;;;;5016635;28;20437;-86
2022/04/13 02:13:15;;;;;;;15.05;9.55;;;12.20;99.90;;;;;;5034009;28;20116;-80
2022/04/13 02:15:41;;;;;;;12.10;9.60;;;12.10;99.90;;;;;;5018251;28;20483;-80
2022/04/13 02:18:07;;;;;;;14.02;9.05;;;12.20;99.90;;;;;;5023134;28;20156;-81
2022/04/13 02:20:33;;;;;;;13.07;10.05;;;12.10;99.90;;;;;;4998843;28;20180;-81
2022/04/13 02:22:59;;;;;;;13.60;9.98;;;12.10;99.90;;;;;;5010083;28;20049;-81
2022/04/13 02:25:25;;;;;;;12.50;9.10;;;12.00;99.90;;;;;;5003521;28;20037;-81
2022/04/13 02:27:50;;;;;;;15.45;10.07;;;12.00;99.90;;;;;;5011413;28;20086;-86
2022/04/13 02:30:16;;;;;;;14.10;9.50;;;12.00;99.90;;;;;;5034608;28;20048;-81
2022/04/13 02:32:45;;;;;;;15.48;9.85;;;12.00;99.90;;;;;;5000703;28;20060;-82
2022/04/13 02:35:13;;;;;;;13.73;9.82;;;12.00;99.90;;;;;;5016308;28;20076;-82
2022/04/13 02:37:39;;;;;;;14.50;10.30;;;11.90;99.90;;;;;;5049244;28;20037;-84
2022/04/13 02:40:07;;;;;;;14.75;9.75;;;11.90;99.90;;;;;;5017009;28;20086;-81
2022/04/13 02:42:33;;;;;;;15.20;10.57;;;11.90;99.90;;;;;;5033643;28;20106;-82
2022/04/13 02:45:00;;;;;;;17.67;10.90;;;11.90;99.90;;;;;;5017046;28;20095;-81
2022/04/13 02:47:26;;;;;;;13.90;10.20;;;11.80;99.90;;;;;;4984731;28;20041;-81
2022/04/13 02:49:52;;;;;;;15.95;11.75;;;11.90;99.90;;;;;;5013090;28;20124;-81
2022/04/13 02:52:18;;;;;;;15.35;11.50;;;11.80;99.90;;;;;;5015457;28;20120;-80
2022/04/13 02:54:43;;;;;;;17.25;10.95;;;11.80;99.90;;;;;;5016417;28;20057;-81
2022/04/13 02:57:09;;;;;;;13.23;10.68;;;11.80;99.90;;;;;;5002058;28;20037;-81
2022/04/13 02:59:35;;;;;;;16.88;10.65;;;11.70;99.90;;;;;;5017488;28;20489;-81
2022/04/13 03:02:00;;;;;;;16.10;11.13;;;11.70;99.90;;;;;;5000608;28;20584;-82
2022/04/13 03:04:26;;;;;;;16.45;11.23;;;11.60;99.90;;;;;;5017355;28;20382;-83
2022/04/13 03:06:52;;;;;;;15.30;11.05;;;11.60;99.90;;;;;;5032944;28;20041;-85
2022/04/13 03:09:18;;;;;;;15.45;11.40;;;11.60;99.90;;;;;;4997152;28;20046;-81
2022/04/13 03:11:43;;;;;;;17.00;10.80;;;11.50;99.90;;;;;;4997758;28;20049;-81
2022/04/13 03:14:09;;;;;;;17.13;11.45;;;11.50;99.90;;;;;;5029865;28;20049;-81
2022/04/13 03:16:35;;;;;;;18.00;11.18;;;11.50;99.90;;;;;;5029637;28;20069;-81
2022/04/13 03:19:01;;;;;;;14.95;11.30;;;11.50;99.90;;;;;;4997016;28;20053;-81
2022/04/13 03:21:27;;;;;;;17.58;11.57;;;11.50;99.90;;;;;;4980814;28;20045;-84
2022/04/13 03:23:53;;;;;;;17.65;12.23;;;11.50;99.90;;;;;;5012826;28;20124;-85
2022/04/13 03:26:18;;;;;;;17.13;12.05;;;11.50;99.90;;;;;;5012548;28;20120;-82
2022/04/13 03:28:44;;;;;;;18.42;12.95;;;11.50;99.90;;;;;;4989678;28;20080;-81
2022/04/13 03:31:10;;;;;;;16.35;11.80;;;11.50;99.90;;;;;;4996311;28;20095;-81
2022/04/13 03:33:35;;;;;;;24.05;12.52;;;11.50;99.90;;;;;;5013664;28;20045;-80
2022/04/13 03:36:01;;;;;;;19.50;12.45;;;11.50;99.90;;;;;;4996126;28;20522;-81
2022/04/13 03:38:27;;;;;;;19.17;12.88;;;11.40;99.90;;;;;;5013459;28;20128;-82
2022/04/13 03:40:52;;;;;;;17.00;11.95;;;11.40;99.90;;;;;;4997144;28;20049;-83
2022/04/13 03:43:18;;;;;;;19.88;13.18;;;11.40;99.90;;;;;;5013004;28;20046;-81
2022/04/13 03:45:44;;;;;;;19.73;12.75;;;11.40;99.90;;;;;;5012817;28;20103;-82
2022/04/13 03:48:09;;;;;;;16.65;12.98;;;11.40;99.90;;;;;;5011987;28;20527;-81
2022/04/13 03:50:35;;;;;;;17.80;12.80;;;11.40;99.90;;;;;;5013438;28;20044;-81
2022/04/13 03:53:00;;;;;;;24.60;13.48;;;11.50;99.90;;;;;;5029236;28;20041;-82
2022/04/13 03:55:26;;;;;;;20.90;13.48;;;11.40;99.90;;;;;;5029116;28;20106;-81
2022/04/13 03:57:52;;;;;;;22.42;13.65;;;11.30;99.90;;;;;;5012845;28;20356;-81
2022/04/13 04:00:18;;;;;;;16.88;12.52;;;11.30;99.90;;;;;;5012558;28;20053;-81
2022/04/13 04:02:44;;;;;;;16.15;11.50;;;11.20;99.90;;;;;;4979709;28;20132;-82
2022/04/13 04:05:11;;;;;;;18.48;12.07;;;11.20;99.90;;;;;;5011825;28;20124;-81
2022/04/13 04:07:38;;;;;;;17.63;11.23;;;11.10;99.90;;;;;;5013030;28;20071;-80
2022/04/13 04:10:05;;;;;;;14.43;11.23;;;11.10;99.90;;;;;;5027468;28;20111;-81
2022/04/13 04:12:36;;;;;;;16.48;10.50;;;11.10;99.90;;;;;;4985875;28;20042;-81
2022/04/13 04:15:02;;;;;;;15.88;11.10;;;11.10;99.90;;;;;;5009022;28;20776;-86
2022/04/13 04:17:28;;;;;;;15.52;11.23;;;11.10;99.90;;;;;;4993680;28;20141;-83
2022/04/13 04:19:54;;;;;;;16.67;11.68;;;11.10;99.90;;;;;;5011823;28;20116;-82
2022/04/13 04:22:23;;;;;;;16.75;11.68;;;11.10;99.90;;;;;;5012216;28;20041;-81
2022/04/13 04:24:49;;;;;;;15.95;11.63;;;11.00;99.90;;;;;;5012721;28;20465;-82
2022/04/13 04:27:14;;;;;;;17.55;12.52;;;11.00;99.90;;;;;;4991341;28;20141;-82
2022/04/13 04:29:40;;;;;;;20.77;13.80;;;10.90;99.90;;;;;;5012119;28;20045;-84
2022/04/13 04:32:06;;;;;;;18.75;12.68;;;10.90;99.90;;;;;;5009810;28;20041;-82
2022/04/13 04:34:33;;;;;;;20.35;13.07;;;10.80;99.90;;;;;;5027300;28;20096;-81
2022/04/13 04:36:59;;;;;;;17.77;13.20;;;10.80;99.90;;;;;;4993928;28;20055;-88
2022/04/13 04:39:25;;;;;;;23.23;14.02;;;10.80;99.90;;;;;;5025144;28;20033;-82
2022/04/13 04:41:52;;;;;;;21.80;14.02;;;10.70;99.90;;;;;;5010841;28;20048;-82
2022/04/13 04:44:18;;;;;;;20.48;14.43;;;10.70;99.90;;;;;;4993664;28;20092;-82
2022/04/13 04:46:44;;;;;;;18.42;13.00;;;10.60;99.90;;;;;;4997503;28;20049;-83
2022/04/13 04:49:09;;;;;;;21.20;14.50;;;10.50;99.90;;;;;;5025203;28;20041;-81
2022/04/13 04:51:35;;;;;;;16.80;13.50;;;10.50;99.90;;;;;;5013205;28;20041;-81
2022/04/13 04:54:02;;;;;;;22.38;14.48;;;10.40;99.90;;;;;;5011870;28;20359;-88
2022/04/13 04:56:28;;;;;;;22.67;14.43;;;10.40;99.90;;;;;;4995521;28;20115;-83
2022/04/13 04:58:54;;;;;;;22.83;13.80;;;10.40;99.90;;;;;;5027574;28;20072;-82
2022/04/13 05:01:20;;;;;;;19.65;14.75;;;10.40;99.90;;;;;;4995055;28;20106;-82
2022/04/13 05:03:49;;;;;;;23.52;14.23;;;10.40;99.90;;;;;;5000681;28;20041;-81
2022/04/13 05:06:23;;;;;;;21.20;13.85;;;10.40;99.90;;;;;;5011879;28;20061;-82
2022/04/13 05:08:49;;;;;;;23.05;14.18;;;10.50;99.90;;;;;;4996176;28;20057;-82
2022/04/13 05:11:16;;;;;;;18.13;12.68;;;10.50;99.90;;;;;;4991088;28;20054;-81
2022/04/13 05:13:42;;;;;;;18.30;13.23;;;10.50;99.90;;;;;;5003046;28;20050;-82
2022/04/13 05:16:07;;;;;;;24.70;13.68;;;10.50;99.90;;;;;;5015195;28;20107;-84
2022/04/13 05:18:33;;;;;;;25.00;16.27;;;10.60;99.90;;;;;;4996846;28;20131;-83
2022/04/13 05:20:59;;;;;;;21.60;15.52;;;10.50;99.90;;;;;;5033587;28;20470;-81
2022/04/13 05:23:25;;;;;;;24.50;14.43;;;10.60;99.90;;;;;;4999601;28;20057;-80
2022/04/13 05:25:51;;;;;;;20.90;15.27;;;10.60;99.90;;;;;;5031384;28;20048;-81
2022/04/13 05:28:17;;;;;;;25.85;15.45;;;10.70;99.90;;;;;;5014169;28;20164;-81
2022/04/13 05:30:43;;;;;;;25.42;15.82;;;10.70;99.90;;;;;;4984279;28;20064;-83
2022/04/13 05:33:08;;;;;;;26.17;14.88;;;10.80;99.90;;;;;;5011361;28;20041;-82
2022/04/13 05:35:34;;;;;;;25.27;14.73;;;10.80;99.90;;;;;;5028092;28;20049;-82
2022/04/13 05:38:02;;;;;;;24.17;15.43;;;10.80;99.90;;;;;;4994089;28;20041;-84
2022/04/13 05:40:28;;;;;;;30.23;15.80;;;10.80;99.90;;;;;;4982074;28;20108;-83
2022/04/13 05:42:54;;;;;;;25.70;16.33;;;10.80;99.90;;;;;;4999017;28;20494;-82
2022/04/13 05:45:20;;;;;;;23.80;15.93;;;10.80;99.90;;;;;;5008332;28;20041;-81
2022/04/13 05:47:46;;;;;;;24.73;15.50;;;10.80;99.90;;;;;;4994180;28;20081;-85
2022/04/13 05:50:13;;;;;;;27.80;16.27;;;10.80;99.90;;;;;;5013055;28;20158;-80
2022/04/13 05:52:40;;;;;;;22.45;14.55;;;10.80;99.90;;;;;;5012162;28;20049;-82
2022/04/13 05:55:07;;;;;;;25.30;16.13;;;10.80;99.90;;;;;;5013892;28;20045;-86
2022/04/13 05:57:33;;;;;;;28.55;17.10;;;10.80;99.90;;;;;;5012759;28;20187;-86
2022/04/13 05:59:59;;;;;;;26.98;18.70;;;10.80;99.90;;;;;;5029797;28;20069;-80
2022/04/13 06:02:24;;;;;;;29.17;18.42;;;10.90;99.90;;;;;;4979569;28;20049;-81
2022/04/13 06:04:50;;;;;;;27.13;18.05;;;11.00;99.90;;;;;;5015592;28;20471;-81
2022/04/13 06:07:16;;;;;;;33.55;17.60;;;11.10;99.90;;;;;;5012904;28;20584;-79
2022/04/13 06:09:42;;;;;;;26.55;17.50;;;11.30;99.90;;;;;;5012391;28;20057;-80
2022/04/13 06:12:09;;;;;;;28.58;17.67;;;11.40;99.90;;;;;;5025164;28;20049;-86
2022/04/13 06:14:35;;;;;;;28.85;18.42;;;11.50;99.90;;;;;;4996177;28;20044;-84
2022/04/13 06:17:00;;;;;;;26.70;18.60;;;11.50;99.90;;;;;;5011984;28;20038;-82
2022/04/13 06:19:26;;;;;;;25.25;17.83;;;11.60;99.90;;;;;;5006133;28;20147;-82
2022/04/13 06:21:52;;;;;;;27.88;17.48;;;11.70;99.90;;;;;;5019579;28;20718;-82
2022/04/13 06:24:18;;;;;;;26.90;18.20;;;11.80;99.90;;;;;;5010199;28;20052;-82
2022/04/13 06:26:44;;;;;;;29.27;18.20;;;12.00;99.90;;;;;;5014507;28;20115;-83
2022/04/13 06:29:10;;;;;;;32.28;18.40;;;12.30;99.90;;;;;;5013657;28;20044;-82
2022/04/13 06:31:35;;;;;;;25.95;18.17;;;12.50;99.90;;;;;;5011010;28;20382;-81
2022/04/13 06:34:02;;;;;;;24.48;17.92;;;12.60;99.90;;;;;;4996918;28;20038;-83
2022/04/13 06:36:28;;;;;;;27.50;18.65;;;12.80;99.90;;;;;;5009666;28;20059;-83
2022/04/13 06:38:55;;;;;;;31.25;17.90;;;12.90;99.90;;;;;;5007803;28;20037;-83
2022/04/13 06:41:21;;;;;;;27.42;17.70;;;13.10;99.90;;;;;;5007010;28;20045;-80
2022/04/13 06:43:47;;;;;;;27.63;19.02;;;13.30;99.90;;;;;;5005808;28;20059;-80
2022/04/13 06:46:13;;;;;;;26.52;17.48;;;13.40;99.90;;;;;;5015343;28;20099;-81
2022/04/13 06:48:39;;;;;;;27.98;17.83;;;13.50;99.90;;;;;;5009824;28;20124;-81
2022/04/13 06:51:05;;;;;;;24.88;17.35;;;13.60;99.90;;;;;;5009489;28;20037;-80
2022/04/13 06:53:31;;;;;;;26.90;18.02;;;13.70;99.90;;;;;;5002836;28;20081;-81
2022/04/13 06:55:57;;;;;;;28.83;18.58;;;13.80;99.90;;;;;;4993482;28;20080;-81
2022/04/13 06:58:23;;;;;;;27.85;18.52;;;13.90;99.90;;;;;;4985055;28;20037;-81
2022/04/13 07:00:49;;;;;;;27.45;19.38;;;13.90;99.90;;;;;;5013489;28;20052;-84
2022/04/13 07:03:14;;;;;;;31.73;18.75;;;14.00;99.90;;;;;;5013310;28;20045;-82
2022/04/13 07:05:40;;;;;;;25.60;18.27;;;14.00;99.90;;;;;;4994559;28;20048;-85
2022/04/13 07:08:07;;;;;;;23.73;17.30;;;14.00;99.90;;;;;;4992789;28;20042;-80
2022/04/13 07:10:33;;;;;;;29.00;17.98;;;13.90;99.90;;;;;;5018794;28;20505;-85
2022/04/13 07:13:00;;;;;;;28.25;17.95;;;13.90;99.90;;;;;;5016365;28;20120;-79
2022/04/13 07:15:26;;;;;;;31.15;19.23;;;13.80;99.90;;;;;;5012234;28;20061;-80
2022/04/13 07:17:52;;;;;;;28.85;18.15;;;13.80;99.90;;;;;;4986768;28;20038;-80
2022/04/13 07:20:18;;;;;;;29.42;18.13;;;13.80;99.90;;;;;;5010715;28;20051;-80
2022/04/13 07:22:49;;;;;;;25.38;17.90;;;13.80;99.90;;;;;;5010630;28;20057;-82
2022/04/13 07:25:19;;;;;;;29.52;17.50;;;13.80;99.90;;;;;;4995244;28;20073;-79
2022/04/13 07:27:46;;;;;;;27.58;16.77;;;13.90;99.90;;;;;;4992089;28;20038;-81
2022/04/13 07:30:13;;;;;;;20.10;14.45;;;14.00;99.90;;;;;;5001813;28;20056;-85
2022/04/13 07:32:40;;;;;;;21.00;14.52;;;14.10;99.90;;;;;;5010815;28;20041;-80
2022/04/13 07:35:06;;;;;;;24.58;13.88;;;14.20;99.90;;;;;;5008106;28;20556;-80
2022/04/13 07:37:32;;;;;;;21.88;13.05;;;14.40;99.90;;;;;;5019420;28;20046;-80
2022/04/13 07:39:59;;;;;;;19.00;12.50;;;14.60;99.90;;;;;;5019386;28;20115;-82
2022/04/13 07:42:27;;;;;;;22.33;12.65;;;14.90;99.90;;;;;;5012749;28;20045;-79
2022/04/13 07:44:54;;;;;;;20.77;12.80;;;15.20;99.90;;;;;;5008469;28;20049;-81
2022/04/13 07:47:22;;;;;;;19.88;12.57;;;15.40;99.90;;;;;;5016821;28;20814;-80
2022/04/13 07:49:49;;;;;;;21.70;13.38;;;15.40;99.90;;;;;;5016816;28;20045;-83
2022/04/13 07:52:16;;;;;;;22.10;12.77;;;15.50;99.90;;;;;;5012046;28;20072;-79
2022/04/13 07:54:44;;;;;;;18.13;11.60;;;15.50;99.90;;;;;;5003176;28;20045;-80
2022/04/13 07:57:10;;;;;;;20.00;12.38;;;15.40;99.90;;;;;;5026142;28;20045;-86
2022/04/13 07:59:36;;;;;;;17.77;12.23;;;15.40;99.90;;;;;;5009486;28;20161;-81
2022/04/13 08:02:02;;;;;;;17.73;10.68;;;15.50;99.90;;;;;;5008399;28;20042;-80
2022/04/13 08:04:28;;;;;;;16.20;10.38;;;15.60;99.90;;;;;;5024034;28;20499;-82
2022/04/13 08:06:54;;;;;;;14.90;10.18;;;15.70;99.90;;;;;;5026393;28;20053;-82
2022/04/13 08:09:20;;;;;;;18.10;10.07;;;15.60;99.90;;;;;;5011315;28;20053;-82
2022/04/13 08:11:46;;;;;;;17.83;11.07;;;15.60;99.90;;;;;;5029064;28;20049;-85
2022/04/13 08:14:12;;;;;;;17.15;10.27;;;15.60;99.90;;;;;;5003846;28;20045;-84
2022/04/13 08:16:38;;;;;;;16.20;10.93;;;15.60;99.90;;;;;;5012463;28;20125;-83
2022/04/13 08:19:05;;;;;;;20.63;10.18;;;15.50;99.90;;;;;;4993425;28;20438;-83
2022/04/13 08:21:33;;;;;;;16.90;10.20;;;15.60;99.90;;;;;;4974038;28;20045;-80
2022/04/13 08:23:59;;;;;;;19.92;11.10;;;15.60;99.90;;;;;;4996349;28;20042;-80
2022/04/13 08:26:24;;;;;;;14.95;10.23;;;15.70;99.90;;;;;;5024436;28;20053;-81
2022/04/13 08:28:50;;;;;;;17.23;10.55;;;15.70;99.90;;;;;;4997952;28;20063;-81
2022/04/13 08:31:18;;;;;;;20.85;10.75;;;15.70;99.90;;;;;;5011947;28;20099;-81
2022/04/13 08:33:44;;;;;;;15.30;9.73;;;15.80;99.90;;;;;;5006161;28;20052;-82
2022/04/13 08:36:09;;;;;;;24.42;10.45;;;16.00;99.90;;;;;;5018938;28;20048;-81
2022/04/13 08:38:36;;;;;;;15.43;10.15;;;16.10;99.90;;;;;;4984384;28;20045;-81
2022/04/13 08:41:11;;;;;;;18.33;9.88;;;16.20;99.90;;;;;;5012559;28;20473;-80
2022/04/13 08:43:43;;;;;;;12.40;9.23;;;16.40;99.90;;;;;;5009564;28;20057;-80
2022/04/13 08:46:14;;;;;;;17.15;9.55;;;16.40;99.90;;;;;;5006356;28;20478;-84
2022/04/13 08:48:42;;;;;;;13.43;8.02;;;16.70;99.90;;;;;;5014988;28;20475;-82
2022/04/13 08:51:12;;;;;;;14.48;8.68;;;16.90;99.90;;;;;;5015781;28;20037;-80
2022/04/13 08:53:43;;;;;;;16.33;8.38;;;16.90;99.90;;;;;;5015673;28;20041;-82
2022/04/13 08:56:15;;;;;;;10.35;6.65;;;17.00;99.90;;;;;;5032050;28;20419;-82
2022/04/13 08:59:01;;;;;;;13.75;7.95;;;17.10;99.90;;;;;;5024311;28;20065;-80
2022/04/13 09:01:41;;;;;;;11.90;7.28;;;17.20;99.90;;;;;;5022798;28;20068;-80
2022/04/13 09:04:11;;;;;;;15.93;8.73;;;17.40;99.90;;;;;;5013214;28;20100;-82
2022/04/13 09:06:42;;;;;;;13.55;7.13;;;17.70;99.90;;;;;;4997534;28;20505;-81
2022/04/13 09:09:35;;;;;;;12.13;6.07;;;17.80;99.90;;;;;;5016910;28;20029;-82
2022/04/13 09:12:02;;;;;;;12.25;6.65;;;17.60;99.90;;;;;;5006183;28;20041;-82
2022/04/13 09:14:29;;;;;;;18.00;6.72;;;17.50;99.90;;;;;;5032139;28;20045;-82
2022/04/13 09:16:57;;;;;;;12.35;6.63;;;17.60;99.90;;;;;;5017837;28;20159;-83
2022/04/13 09:19:25;;;;;;;12.25;6.80;;;17.60;99.90;;;;;;5016663;28;20470;-80
2022/04/13 09:21:52;;;;;;;9.30;5.30;;;17.50;99.90;;;;;;5018660;28;20423;-82
2022/04/13 09:24:19;;;;;;;9.98;5.30;;;17.60;99.90;;;;;;5018270;28;20032;-86
2022/04/13 09:26:46;;;;;;;9.75;5.47;;;18.00;99.90;;;;;;5016476;28;20431;-83
2022/04/13 09:29:12;;;;;;;11.70;6.20;;;18.50;99.90;;;;;;5009370;28;20037;-81
2022/04/13 09:31:38;;;;;;;9.80;5.65;;;19.30;99.90;;;;;;4994282;28;20048;-84
2022/04/13 09:34:04;;;;;;;9.88;5.28;;;20.10;99.90;;;;;;5020479;28;20050;-85
2022/04/13 09:36:30;;;;;;;11.43;7.03;;;20.80;99.90;;;;;;5016066;28;20090;-82
2022/04/13 09:38:56;;;;;;;10.32;6.22;;;21.30;99.90;;;;;;5017851;28;20472;-82
2022/04/13 09:41:33;;;;;;;10.57;6.28;;;21.30;99.90;;;;;;5016408;28;20049;-81
2022/04/13 09:43:59;;;;;;;12.38;6.28;;;21.60;94.30;;;;;;5036732;28;20048;-81
2022/04/13 09:46:31;;;;;;;11.13;5.90;;;21.70;98.70;;;;;;4975513;28;20041;-82
2022/04/13 09:49:17;;;;;;;10.57;5.88;;;21.80;94.10;;;;;;5030522;28;20044;-83
2022/04/13 09:51:47;;;;;;;9.10;5.72;;;22.10;96.10;;;;;;5027591;28;20494;-82
2022/04/13 09:54:13;;;;;;;10.45;5.97;;;22.40;91.10;;;;;;5018422;28;20049;-78
2022/04/13 09:56:49;;;;;;;10.20;5.50;;;22.60;95.00;;;;;;4992192;28;20049;-79
2022/04/13 09:59:29;;;;;;;9.27;5.70;;;23.00;90.70;;;;;;5030999;28;20079;-82
2022/04/13 10:01:55;;;;;;;9.90;5.47;;;23.30;87.50;;;;;;5016154;28;20048;-81
2022/04/13 10:04:25;;;;;;;10.80;5.75;;;23.60;87.30;;;;;;5031547;28;20127;-86
2022/04/13 10:06:52;;;;;;;10.55;5.55;;;23.90;76.50;;;;;;5024534;28;20041;-81
2022/04/13 10:09:19;;;;;;;13.40;6.70;;;23.40;77.10;;;;;;5017683;28;20088;-80
2022/04/13 10:12:04;;;;;;;9.95;5.43;;;23.20;80.60;;;;;;5020748;28;20489;-80
2022/04/13 10:14:30;;;;;;;11.95;6.15;;;23.70;72.80;;;;;;5017998;28;20045;-82
2022/04/13 10:17:09;;;;;;;11.18;6.18;;;23.90;76.40;;;;;;5035453;28;20090;-81
2022/04/13 10:19:36;;;;;;;9.05;6.50;;;24.20;72.10;;;;;;5013858;28;20387;-80
2022/04/13 10:22:01;;;;;;;11.32;6.25;;;24.80;73.40;;;;;;5002299;28;20037;-81
2022/04/13 10:24:37;;;;;;;11.20;6.15;;;25.40;69.80;;;;;;5017768;28;20543;-81
2022/04/13 10:27:16;;;;;;;10.57;6.88;;;25.70;63.80;;;;;;4999212;28;20049;-81
2022/04/13 10:29:46;;;;;;;8.82;5.70;;;25.70;61.30;;;;;;5015987;28;20133;-82
2022/04/13 10:32:15;;;;;;;11.07;5.15;;;26.10;62.50;;;;;;5000976;28;21651;-81
2022/04/13 10:34:42;;;;;;;8.80;4.70;;;26.00;57.60;;;;;;5016027;28;20044;-81
2022/04/13 10:37:10;;;;;;;7.70;4.20;;;25.50;59.00;;;;;;4991035;28;20044;-82
2022/04/13 10:39:37;;;;;;;6.85;4.47;;;25.80;61.30;;;;;;5004240;28;20102;-82
2022/04/13 10:42:03;;;;;;;7.85;4.32;;;26.30;59.30;;;;;;5014872;28;20041;-85
2022/04/13 10:44:34;;;;;;;7.72;4.20;;;26.10;56.00;;;;;;5013718;28;20052;-81
2022/04/13 10:47:09;;;;;;;6.70;4.35;;;25.70;54.50;;;;;;5028395;28;20037;-80
2022/04/13 10:49:52;;;;;;;8.52;4.05;;;26.00;58.90;;;;;;5038742;28;20041;-81
2022/04/13 10:52:35;;;;;;;7.45;3.65;;;26.80;54.90;;;;;;5026252;28;20033;-78
2022/04/13 10:55:07;;;;;;;9.45;4.93;;;27.20;52.40;;;;;;5023465;28;20037;-79
2022/04/13 10:57:53;;;;;;;6.78;3.47;;;26.80;52.20;;;;;;5016394;28;20128;-81
2022/04/13 11:00:20;;;;;;;5.75;3.40;;;25.60;51.20;;;;;;5030778;28;20041;-79
2022/04/13 11:02:53;;;;;;;4.72;3.40;;;24.80;59.50;;;;;;5010691;28;20095;-78
2022/04/13 11:05:20;;;;;;;6.53;3.75;;;24.30;61.30;;;;;;5001789;28;20045;-78
2022/04/13 11:07:47;;;;;;;7.05;4.13;;;24.10;61.30;;;;;;4996445;28;20389;-78
2022/04/13 11:10:19;;;;;;;6.75;3.40;;;24.30;63.30;;;;;;5005573;28;20093;-78
2022/04/13 11:12:46;;;;;;;5.50;2.72;;;24.70;57.30;;;;;;5005975;28;20380;-78
2022/04/13 11:15:11;;;;;;;5.63;2.63;;;24.80;56.20;;;;;;5002637;28;20045;-79
2022/04/13 11:17:42;;;;;;;4.03;2.05;;;25.10;55.00;;;;;;4997393;28;20502;-78
2022/04/13 11:20:20;;;;;;;3.83;1.73;;;24.90;53.00;;;;;;5020139;28;20041;-78
2022/04/13 11:23:05;;;;;;;3.90;2.00;;;24.80;52.00;;;;;;5018096;28;20738;-79
2022/04/13 11:25:47;;;;;;;4.63;1.90;;;24.20;55.40;;;;;;5027824;28;20045;-80
2022/04/13 11:28:31;;;;;;;4.65;1.75;;;23.80;56.30;;;;;;5015460;28;20121;-79
2022/04/13 11:31:13;;;;;;;4.63;1.50;;;23.60;57.20;;;;;;4985238;28;20044;-79
2022/04/13 11:33:58;;;;;;;4.25;1.65;;;23.70;55.80;;;;;;5031769;28;20037;-79
2022/04/13 11:36:27;;;;;;;6.47;1.50;;;23.30;54.90;;;;;;5000210;28;20090;-82
2022/04/13 11:38:54;;;;;;;4.93;1.38;;;23.20;57.00;;;;;;5012986;28;20125;-79
2022/04/13 11:41:20;;;;;;;5.22;1.70;;;23.20;57.90;;;;;;5023009;28;20036;-79
2022/04/13 11:43:47;;;;;;;5.97;1.80;;;23.00;59.20;;;;;;5021750;28;20064;-80
2022/04/13 11:46:39;;;;;;;4.68;1.77;;;22.40;62.30;;;;;;4982522;28;20049;-81
2022/04/13 11:49:10;;;;;;;4.05;2.00;;;21.90;65.60;;;;;;5019674;28;20045;-80
2022/04/13 11:51:37;;;;;;;5.32;1.83;;;21.70;70.00;;;;;;5020516;28;20424;-78
2022/04/13 11:54:11;;;;;;;7.05;2.13;;;21.50;69.70;;;;;;5013457;28;20557;-80
2022/04/13 11:56:47;;;;;;;5.95;2.13;;;21.00;69.20;;;;;;5008185;28;20033;-81
2022/04/13 11:59:15;;;;;;;4.90;2.55;;;20.50;74.60;;;;;;5007158;28;20688;-80
2022/04/13 12:01:53;;;;;;;5.93;2.50;;;20.10;78.70;;;;;;5027950;28;20041;-79
2022/04/13 12:04:22;;;;;;;5.50;2.35;;;20.10;82.20;;;;;;5001352;28;20500;-79
2022/04/13 12:06:49;;;;;;;5.22;1.90;;;20.40;78.80;;;;;;5014939;28;20135;-80
2022/04/13 12:09:16;;;;;;;6.57;2.88;;;20.60;77.70;;;;;;5014168;28;20487;-80
2022/04/13 12:11:47;;;;;;;8.05;2.85;;;20.90;77.00;;;;;;5010270;28;20487;-80
2022/04/13 12:14:27;;;;;;;8.20;3.53;;;21.40;75.80;;;;;;5045912;28;20053;-81
2022/04/13 12:16:57;;;;;;;10.18;4.15;;;22.00;73.40;;;;;;5013003;28;20150;-81
2022/04/13 12:19:23;;;;;;;14.32;5.35;;;22.60;70.80;;;;;;4997951;28;20042;-81
2022/04/13 12:21:49;;;;;;;11.25;4.95;;;22.60;71.60;;;;;;4992407;28;20073;-81
2022/04/13 12:24:14;;;;;;;12.00;5.65;;;22.30;73.40;;;;;;4962257;28;20128;-81
2022/04/13 12:26:43;;;;;;;12.10;4.70;;;22.00;77.90;;;;;;5005382;28;20490;-80
2022/04/13 12:29:20;;;;;;;12.10;5.53;;;21.30;79.80;;;;;;5010894;28;20041;-81
2022/04/13 12:31:56;;;;;;;12.77;5.20;;;20.90;86.60;;;;;;5013121;28;20055;-80
2022/04/13 12:34:24;;;;;;;11.45;5.35;;;20.70;89.50;;;;;;4982727;28;20083;-80
2022/04/13 12:37:00;;;;;;;10.38;5.25;;;20.60;90.10;;;;;;5012237;28;20524;-80